Time;durP1;ratioP1;P1;durP2;ratioP2;P2;SDS_P1;SDS_P2;PMS_P1;PMS_P2;Temp;Humidity;BMP_temperature;BMP_pressure;BME280_temperature;BME280_humidity;BME280_pressure;Samples;Min_cycle;Max_cycle;Signal;HPM_P1;HPM_P2
2023/10/31 00:01:40;;;;;;;1.17;0.38;;;14.80;69.80;16.40;99439.00;;;;5008900;28;20233;-79
2023/10/31 00:04:06;;;;;;;1.20;0.40;;;14.80;69.90;16.40;99438.00;;;;5000244;28;20214;-79
2023/10/31 00:06:33;;;;;;;2.55;0.50;;;14.80;70.00;16.40;99431.00;;;;5000361;28;20870;-79
2023/10/31 00:09:02;;;;;;;0.85;0.30;;;14.80;70.00;16.40;99431.00;;;;5002508;28;20201;-79
2023/10/31 00:11:29;;;;;;;2.10;0.52;;;14.80;70.00;16.40;99433.00;;;;4990810;28;20205;-79
2023/10/31 00:13:56;;;;;;;1.48;0.47;;;14.80;70.40;16.40;99442.00;;;;4997991;28;20205;-79
2023/10/31 00:16:23;;;;;;;1.25;0.65;;;14.80;70.00;16.40;99430.00;;;;5012671;28;21090;-79
2023/10/31 00:18:50;;;;;;;4.15;0.75;;;14.80;70.00;16.40;99440.00;;;;4994192;28;20201;-79
2023/10/31 00:21:17;;;;;;;2.17;0.85;;;14.80;70.00;16.40;99436.00;;;;5001208;28;20221;-80
2023/10/31 00:23:45;;;;;;;2.10;1.02;;;14.80;70.00;16.40;99435.00;;;;4993066;28;20205;-80
2023/10/31 00:26:13;;;;;;;1.75;1.25;;;14.80;70.00;16.40;99433.00;;;;4994135;28;20706;-79
2023/10/31 00:28:40;;;;;;;2.20;1.75;;;14.80;70.00;16.40;99426.00;;;;4994133;28;20252;-79
2023/10/31 00:31:11;;;;;;;2.05;1.67;;;14.80;70.00;16.40;99433.00;;;;4997196;28;20192;-79
2023/10/31 00:33:38;;;;;;;3.15;2.03;;;14.80;70.00;16.40;99437.00;;;;4999463;28;20197;-79
2023/10/31 00:36:05;;;;;;;3.55;2.47;;;14.80;70.10;16.50;99438.00;;;;4994958;28;20552;-79
2023/10/31 00:38:32;;;;;;;3.92;2.38;;;14.80;70.10;16.50;99436.00;;;;5001306;28;20224;-79
2023/10/31 00:40:59;;;;;;;3.70;2.78;;;14.80;70.10;16.50;99443.00;;;;5008250;28;20259;-79
2023/10/31 00:43:28;;;;;;;3.78;2.92;;;14.80;70.20;16.50;99450.00;;;;5002494;28;20232;-79
2023/10/31 00:45:55;;;;;;;4.40;3.30;;;14.80;70.20;16.50;99461.00;;;;4992836;28;20197;-78
2023/10/31 00:48:22;;;;;;;6.40;3.60;;;14.80;70.20;16.50;99461.00;;;;4992268;28;20244;-80
2023/10/31 00:50:49;;;;;;;4.82;3.53;;;14.80;70.20;16.50;99464.00;;;;5002835;28;20677;-80
2023/10/31 00:53:16;;;;;;;4.50;3.55;;;14.80;70.20;16.50;99462.00;;;;4997145;28;20197;-79
2023/10/31 00:55:44;;;;;;;5.47;3.88;;;14.80;70.20;16.50;99468.00;;;;4997280;28;20217;-79
2023/10/31 00:58:11;;;;;;;3.83;3.28;;;14.80;70.20;16.50;99475.00;;;;5000518;28;20200;-80
2023/10/31 01:00:45;;;;;;;4.72;3.47;;;14.80;70.30;16.40;99476.00;;;;5003458;28;20235;-80
2023/10/31 01:03:12;;;;;;;4.20;2.88;;;14.80;70.50;16.50;99476.00;;;;5001594;28;20201;-80
2023/10/31 01:05:39;;;;;;;4.25;3.20;;;14.80;70.30;16.50;99471.00;;;;4991725;28;20202;-80
2023/10/31 01:08:06;;;;;;;5.03;2.63;;;14.80;70.30;16.50;99479.00;;;;4995918;28;20212;-80
2023/10/31 01:10:33;;;;;;;3.30;2.15;;;14.80;70.30;16.50;99480.00;;;;4996950;28;20193;-80
2023/10/31 01:13:00;;;;;;;3.00;2.15;;;14.80;70.30;16.50;99490.00;;;;5011673;28;20581;-81
2023/10/31 01:15:27;;;;;;;2.78;2.08;;;14.80;70.30;16.50;99485.00;;;;5011380;28;20209;-80
2023/10/31 01:17:55;;;;;;;3.55;2.17;;;14.80;70.30;16.50;99486.00;;;;4999291;28;20235;-80
2023/10/31 01:20:22;;;;;;;3.03;2.17;;;14.80;70.40;16.50;99485.00;;;;5010833;28;20204;-80
2023/10/31 01:22:49;;;;;;;2.65;1.92;;;14.80;70.40;16.50;99487.00;;;;4999375;28;20220;-80
2023/10/31 01:25:16;;;;;;;4.43;1.83;;;14.80;70.40;16.50;99487.00;;;;4991891;28;20230;-80
2023/10/31 01:27:43;;;;;;;3.17;2.17;;;14.90;70.40;16.50;99488.00;;;;4991898;28;20218;-80
2023/10/31 01:30:12;;;;;;;4.35;2.55;;;14.90;70.40;16.50;99491.00;;;;4999168;28;20578;-79
2023/10/31 01:32:38;;;;;;;7.40;2.60;;;14.90;70.30;16.50;99495.00;;;;4997291;28;20197;-80
2023/10/31 01:35:08;;;;;;;4.63;2.83;;;14.90;70.40;16.50;99498.00;;;;4994890;28;20212;-80
2023/10/31 01:37:35;;;;;;;4.13;2.78;;;14.90;70.50;16.60;99498.00;;;;4990945;28;20205;-79
2023/10/31 01:40:02;;;;;;;4.80;3.40;;;14.90;70.40;16.60;99501.00;;;;4994387;28;20917;-79
2023/10/31 01:42:29;;;;;;;4.07;3.47;;;14.90;70.50;16.60;99499.00;;;;4990351;28;20233;-79
2023/10/31 01:44:56;;;;;;;6.10;4.20;;;14.90;70.50;16.60;99511.00;;;;4995928;28;20197;-79
2023/10/31 01:47:24;;;;;;;5.90;3.65;;;14.90;70.50;16.60;99503.00;;;;5008447;28;20201;-79
2023/10/31 01:49:52;;;;;;;6.00;4.22;;;14.90;70.40;16.60;99501.00;;;;4996305;28;20252;-79
2023/10/31 01:52:20;;;;;;;7.20;4.03;;;14.90;70.40;16.60;99500.00;;;;4995061;28;20200;-78
2023/10/31 01:54:47;;;;;;;7.00;4.00;;;14.90;70.40;16.70;99497.00;;;;4995569;28;20547;-78
2023/10/31 01:57:15;;;;;;;7.03;4.13;;;14.90;70.40;16.70;99500.00;;;;5000872;28;20201;-78
2023/10/31 01:59:43;;;;;;;4.80;4.30;;;14.90;70.40;16.60;99499.00;;;;4993896;28;20276;-79
2023/10/31 02:02:10;;;;;;;6.95;4.05;;;15.00;70.40;16.70;99501.00;;;;4993131;28;20240;-79
2023/10/31 02:04:36;;;;;;;6.90;3.90;;;15.00;70.40;16.60;99497.00;;;;4995817;28;20201;-78
2023/10/31 02:07:03;;;;;;;7.47;5.18;;;14.90;70.40;16.60;99489.00;;;;4995224;28;20635;-78
2023/10/31 02:09:33;;;;;;;5.07;3.88;;;15.00;70.40;16.60;99488.00;;;;4999454;28;20189;-78
2023/10/31 02:12:00;;;;;;;6.65;3.47;;;14.90;70.40;16.60;99498.00;;;;4995986;28;20189;-78
2023/10/31 02:14:27;;;;;;;5.63;3.35;;;15.00;70.40;16.60;99503.00;;;;4996082;28;20576;-78
2023/10/31 02:16:54;;;;;;;5.60;3.47;;;15.00;70.40;16.60;99510.00;;;;4989579;28;20216;-78
2023/10/31 02:19:22;;;;;;;5.90;3.28;;;15.00;70.50;16.60;99505.00;;;;4999385;28;20205;-79
2023/10/31 02:21:50;;;;;;;6.07;3.05;;;15.00;70.60;16.60;99506.00;;;;4995008;28;20699;-79
2023/10/31 02:24:17;;;;;;;3.67;2.80;;;15.00;70.60;16.60;99509.00;;;;4990408;28;20288;-78
2023/10/31 02:26:44;;;;;;;4.20;2.70;;;14.90;70.60;16.60;99506.00;;;;4990704;28;20602;-79
2023/10/31 02:29:11;;;;;;;3.13;2.60;;;15.00;70.60;16.60;99515.00;;;;4990005;28;20242;-79
2023/10/31 02:31:39;;;;;;;6.63;2.85;;;15.00;71.00;16.60;99511.00;;;;4993399;28;20220;-78
2023/10/31 02:34:06;;;;;;;5.43;2.67;;;15.00;70.60;16.60;99511.00;;;;5008808;28;20193;-78
2023/10/31 02:36:33;;;;;;;3.80;3.30;;;15.00;70.60;16.60;99510.00;;;;5003405;28;20935;-79
2023/10/31 02:39:02;;;;;;;5.97;3.10;;;15.00;70.70;16.60;99515.00;;;;5008488;28;20686;-77
2023/10/31 02:41:29;;;;;;;4.25;2.83;;;15.00;70.70;16.60;99525.00;;;;4990309;28;20220;-78
2023/10/31 02:43:56;;;;;;;4.72;2.92;;;15.00;70.70;16.60;99522.00;;;;4992202;28;20202;-78
2023/10/31 02:46:23;;;;;;;9.32;3.35;;;15.00;70.70;16.60;99520.00;;;;4988775;28;20206;-79
2023/10/31 02:48:50;;;;;;;6.63;3.45;;;15.00;70.70;16.60;99526.00;;;;4989355;28;20201;-79
2023/10/31 02:51:18;;;;;;;5.00;3.67;;;15.00;70.80;16.60;99515.00;;;;4998770;28;20224;-78
2023/10/31 02:53:45;;;;;;;7.70;3.22;;;14.90;70.70;16.50;99525.00;;;;4996119;28;20206;-79
2023/10/31 02:56:13;;;;;;;6.30;3.80;;;15.00;70.80;16.50;99535.00;;;;5000910;28;20212;-78
2023/10/31 02:58:40;;;;;;;4.57;3.05;;;15.00;70.80;16.50;99535.00;;;;4992126;28;20206;-78
2023/10/31 03:01:07;;;;;;;4.38;3.22;;;15.00;70.80;16.60;99536.00;;;;4991637;28;21039;-78
2023/10/31 03:03:35;;;;;;;3.50;2.97;;;15.00;70.80;16.60;99540.00;;;;4989331;28;20197;-78
2023/10/31 03:06:02;;;;;;;4.90;3.15;;;15.00;70.80;16.60;99542.00;;;;4989637;28;20211;-79
2023/10/31 03:08:29;;;;;;;4.20;3.20;;;15.00;70.80;16.60;99546.00;;;;4988558;28;20201;-79
2023/10/31 03:10:56;;;;;;;5.95;2.78;;;15.00;70.80;16.60;99547.00;;;;4994503;28;20662;-79
2023/10/31 03:13:24;;;;;;;4.88;2.90;;;15.00;70.80;16.60;99553.00;;;;4994332;28;20210;-80
2023/10/31 03:15:51;;;;;;;3.70;2.72;;;15.00;70.80;16.60;99556.00;;;;4991029;28;20197;-79
2023/10/31 03:18:18;;;;;;;4.57;3.17;;;15.00;70.80;16.60;99563.00;;;;4988709;28;20224;-78
2023/10/31 03:20:46;;;;;;;4.15;2.65;;;15.00;70.80;16.60;99568.00;;;;4988843;28;20201;-79
2023/10/31 03:23:13;;;;;;;4.00;2.60;;;15.00;70.70;16.60;99571.00;;;;4991122;28;20204;-79
2023/10/31 03:25:40;;;;;;;4.18;2.22;;;15.00;70.70;16.60;99571.00;;;;5000402;28;20237;-78
2023/10/31 03:28:20;;;;;;;3.95;2.50;;;15.00;70.70;16.50;99576.00;;;;4998987;28;20197;-79
2023/10/31 03:30:49;;;;;;;4.25;2.38;;;15.00;70.80;16.60;99586.00;;;;4992665;28;20715;-79
2023/10/31 03:33:17;;;;;;;2.45;1.85;;;15.00;70.70;16.60;99580.00;;;;4995619;28;20212;-80
2023/10/31 03:35:44;;;;;;;3.65;2.03;;;15.00;70.70;16.60;99596.00;;;;4989827;28;20205;-79
2023/10/31 03:38:11;;;;;;;3.25;2.25;;;15.00;70.60;16.60;99600.00;;;;4988751;28;20656;-79
2023/10/31 03:40:38;;;;;;;2.63;2.25;;;15.00;70.60;16.60;99602.00;;;;4991433;28;20201;-79
2023/10/31 03:43:05;;;;;;;3.03;2.33;;;15.00;70.60;16.60;99610.00;;;;5000420;28;20232;-78
2023/10/31 03:45:32;;;;;;;3.53;2.13;;;15.00;70.60;16.60;99604.00;;;;4995551;28;20213;-79
2023/10/31 03:48:01;;;;;;;2.47;1.67;;;15.00;70.60;16.60;99604.00;;;;4989175;28;20197;-79
2023/10/31 03:50:28;;;;;;;2.00;1.60;;;15.00;70.60;16.60;99601.00;;;;4990948;28;20221;-79
2023/10/31 03:52:55;;;;;;;3.03;1.85;;;14.90;70.50;16.60;99613.00;;;;4993582;28;20229;-79
2023/10/31 03:55:22;;;;;;;3.17;1.73;;;15.00;70.60;16.60;99620.00;;;;4992719;28;20197;-79
2023/10/31 03:57:49;;;;;;;3.42;2.28;;;15.00;70.50;16.60;99617.00;;;;4997858;28;20200;-78
2023/10/31 04:00:17;;;;;;;2.33;1.65;;;15.00;70.60;16.60;99622.00;;;;4990668;28;20197;-79
2023/10/31 04:02:44;;;;;;;2.20;1.63;;;14.90;70.50;16.60;99625.00;;;;4989931;28;20229;-79
2023/10/31 04:05:12;;;;;;;4.50;1.95;;;15.00;70.50;16.60;99633.00;;;;4989298;28;20213;-78
2023/10/31 04:07:39;;;;;;;1.98;1.73;;;15.00;70.50;16.60;99637.00;;;;4996238;28;20197;-78
2023/10/31 04:10:08;;;;;;;2.47;1.65;;;15.00;70.50;16.50;99629.00;;;;4988639;28;20687;-79
2023/10/31 04:12:36;;;;;;;4.45;1.98;;;14.90;70.50;16.60;99630.00;;;;4989002;28;20202;-79
2023/10/31 04:15:04;;;;;;;3.88;2.08;;;14.90;70.50;16.60;99644.00;;;;5003584;28;20194;-79
2023/10/31 04:17:31;;;;;;;2.30;1.77;;;14.90;70.60;16.60;99647.00;;;;4989245;28;20285;-79
2023/10/31 04:19:58;;;;;;;2.92;1.80;;;14.90;70.50;16.60;99649.00;;;;4990205;28;20204;-79
2023/10/31 04:22:26;;;;;;;2.42;1.70;;;15.00;70.60;16.60;99650.00;;;;4988720;28;20233;-79
2023/10/31 04:24:53;;;;;;;1.70;1.40;;;14.90;70.60;16.60;99647.00;;;;4989866;28;20198;-79
2023/10/31 04:27:20;;;;;;;2.17;1.58;;;14.90;70.60;16.60;99653.00;;;;4998178;28;20204;-78
2023/10/31 04:29:47;;;;;;;1.83;1.25;;;15.00;70.60;16.60;99652.00;;;;4993550;28;20209;-79
2023/10/31 04:32:14;;;;;;;3.25;1.30;;;14.90;70.40;16.60;99653.00;;;;4993149;28;20196;-78
2023/10/31 04:34:41;;;;;;;1.00;0.73;;;14.90;70.40;16.60;99652.00;;;;4991788;28;20201;-78
2023/10/31 04:37:08;;;;;;;1.38;0.77;;;14.90;70.40;16.60;99657.00;;;;4995341;28;20205;-78
2023/10/31 04:39:36;;;;;;;0.98;0.68;;;14.90;70.30;16.60;99656.00;;;;4990404;28;20217;-79
2023/10/31 04:42:04;;;;;;;1.13;0.70;;;14.90;70.20;16.60;99657.00;;;;4993661;28;20730;-79
2023/10/31 04:44:31;;;;;;;0.95;0.60;;;14.90;70.20;16.60;99653.00;;;;4998264;28;20197;-79
2023/10/31 04:46:58;;;;;;;1.92;0.60;;;14.90;70.20;16.60;99650.00;;;;5007065;28;20575;-78
2023/10/31 04:49:25;;;;;;;1.77;0.70;;;14.90;70.20;16.60;99648.00;;;;5007668;28;20197;-79
2023/10/31 04:51:52;;;;;;;1.30;0.90;;;14.90;70.20;16.60;99650.00;;;;5002312;28;20208;-78
2023/10/31 04:54:19;;;;;;;2.35;0.80;;;14.90;70.10;16.60;99663.00;;;;4988572;28;20202;-78
2023/10/31 04:56:48;;;;;;;0.73;0.60;;;14.90;70.10;16.50;99656.00;;;;4995825;28;20958;-79
2023/10/31 04:59:15;;;;;;;4.38;0.90;;;14.90;70.10;16.60;99664.00;;;;4993524;28;20205;-78
2023/10/31 05:01:42;;;;;;;2.03;0.70;;;14.90;70.10;16.60;99660.00;;;;4992453;28;20233;-78
2023/10/31 05:04:09;;;;;;;2.60;0.77;;;14.90;70.10;16.60;99671.00;;;;4991939;28;20202;-79
2023/10/31 05:06:36;;;;;;;1.73;0.65;;;14.80;70.10;16.60;99679.00;;;;4994256;28;20201;-78
2023/10/31 05:09:03;;;;;;;1.20;0.60;;;14.80;70.10;16.60;99682.00;;;;4995930;28;20202;-79
2023/10/31 05:11:31;;;;;;;2.65;0.98;;;14.90;70.10;16.60;99674.00;;;;5002589;28;20214;-79
2023/10/31 05:14:00;;;;;;;0.88;0.70;;;14.80;70.00;16.50;99688.00;;;;5001036;28;20215;-79
2023/10/31 05:16:27;;;;;;;1.33;0.60;;;14.80;70.10;16.50;99689.00;;;;5001773;28;20210;-79
2023/10/31 05:18:54;;;;;;;2.72;0.85;;;14.80;70.10;16.50;99692.00;;;;5003315;28;20212;-79
2023/10/31 05:21:23;;;;;;;1.30;1.02;;;14.80;70.00;16.50;99691.00;;;;4992435;28;20382;-79
2023/10/31 05:23:50;;;;;;;1.00;0.77;;;14.80;70.00;16.50;99694.00;;;;4998113;28;20655;-79
2023/10/31 05:26:17;;;;;;;1.17;0.77;;;14.80;70.00;16.50;99705.00;;;;4996315;28;20591;-79
2023/10/31 05:28:44;;;;;;;1.38;1.00;;;14.80;70.00;16.50;99700.00;;;;5005610;28;20193;-79
2023/10/31 05:31:17;;;;;;;3.97;1.10;;;14.80;70.00;16.40;99708.00;;;;5001309;28;20205;-79
2023/10/31 05:33:44;;;;;;;1.73;1.15;;;14.80;70.00;16.50;99716.00;;;;4996530;28;20288;-79
2023/10/31 05:36:19;;;;;;;2.42;1.50;;;14.80;70.00;16.40;99710.00;;;;4995796;28;20577;-79
2023/10/31 05:38:46;;;;;;;2.13;1.27;;;14.70;69.90;16.40;99712.00;;;;5010198;28;20208;-79
2023/10/31 05:41:13;;;;;;;2.50;1.67;;;14.70;69.90;16.40;99712.00;;;;5009056;28;20186;-79
2023/10/31 05:43:41;;;;;;;2.50;1.73;;;14.70;69.90;16.40;99722.00;;;;5010234;28;20274;-79
2023/10/31 05:46:10;;;;;;;1.73;1.30;;;14.70;70.00;16.40;99704.00;;;;4994211;28;20694;-79
2023/10/31 05:48:39;;;;;;;3.63;1.45;;;14.70;70.00;16.30;99730.00;;;;4991177;28;20198;-79
2023/10/31 05:51:12;;;;;;;2.50;1.33;;;14.70;70.00;16.30;99730.00;;;;4990795;28;20259;-79
2023/10/31 05:53:40;;;;;;;2.15;1.15;;;14.70;70.00;16.30;99736.00;;;;5002221;28;20251;-79
2023/10/31 05:56:09;;;;;;;2.42;1.27;;;14.70;70.00;16.30;99739.00;;;;4999772;28;20205;-80
2023/10/31 05:58:37;;;;;;;1.65;0.80;;;14.70;70.10;16.30;99750.00;;;;5007137;28;20205;-79
2023/10/31 06:01:05;;;;;;;1.23;0.68;;;14.60;70.00;16.30;99736.00;;;;5005138;28;20232;-79
2023/10/31 06:03:32;;;;;;;1.00;0.70;;;14.60;70.00;16.30;99746.00;;;;5010047;28;20231;-79
2023/10/31 06:06:01;;;;;;;1.00;0.60;;;14.60;69.90;16.30;99740.00;;;;5006935;28;20205;-79
2023/10/31 06:08:28;;;;;;;1.10;0.55;;;14.60;69.90;16.30;99743.00;;;;5006449;28;20201;-79
2023/10/31 06:10:56;;;;;;;1.10;0.47;;;14.60;70.00;16.20;99746.00;;;;5009822;28;20213;-78
2023/10/31 06:13:25;;;;;;;1.35;0.55;;;14.60;70.00;16.30;99749.00;;;;5009518;28;20200;-78
2023/10/31 06:15:52;;;;;;;1.15;0.75;;;14.60;70.00;16.30;99752.00;;;;5001144;28;20671;-79
2023/10/31 06:18:19;;;;;;;2.92;0.55;;;14.60;70.00;16.30;99757.00;;;;5005658;28;20565;-80
2023/10/31 06:20:46;;;;;;;0.50;0.30;;;14.60;70.10;16.30;99761.00;;;;5010520;28;20197;-80
2023/10/31 06:23:15;;;;;;;1.55;0.40;;;14.50;70.00;16.20;99765.00;;;;5002792;28;20240;-80
2023/10/31 06:25:42;;;;;;;1.08;0.43;;;14.60;70.10;16.20;99765.00;;;;4992906;28;20237;-79
2023/10/31 06:28:08;;;;;;;0.60;0.45;;;14.50;70.10;16.20;99766.00;;;;4994588;28;20212;-79
2023/10/31 06:30:35;;;;;;;0.50;0.43;;;14.50;70.10;16.20;99768.00;;;;4992916;28;20208;-79
2023/10/31 06:33:03;;;;;;;0.60;0.40;;;14.50;70.10;16.20;99770.00;;;;4993205;28;20208;-80
2023/10/31 06:35:30;;;;;;;1.42;0.38;;;14.50;70.10;16.20;99769.00;;;;4998219;28;20586;-79
2023/10/31 06:37:58;;;;;;;1.20;0.47;;;14.50;70.10;16.20;99768.00;;;;4999023;28;20202;-79
2023/10/31 06:40:27;;;;;;;0.85;0.30;;;14.50;70.10;16.20;99772.00;;;;4994089;28;20194;-79
2023/10/31 06:42:54;;;;;;;1.75;0.40;;;14.50;70.20;16.20;99781.00;;;;4992196;28;20229;-79
2023/10/31 06:45:21;;;;;;;0.80;0.35;;;14.50;70.30;16.20;99788.00;;;;4990416;28;20254;-78
2023/10/31 06:47:48;;;;;;;1.10;0.55;;;14.50;70.20;16.20;99783.00;;;;4990835;28;20659;-77
2023/10/31 06:50:15;;;;;;;0.30;0.17;;;14.50;70.20;16.20;99785.00;;;;4992250;28;20202;-79
2023/10/31 06:52:42;;;;;;;3.33;0.40;;;14.50;70.20;16.10;99785.00;;;;4998706;28;20620;-78
2023/10/31 06:55:09;;;;;;;0.90;0.40;;;14.50;70.20;16.10;99793.00;;;;4989196;28;20206;-78
2023/10/31 06:57:38;;;;;;;0.73;0.40;;;14.50;70.20;16.10;99791.00;;;;4996198;28;20201;-78
2023/10/31 07:00:08;;;;;;;0.73;0.40;;;14.50;70.20;16.10;99797.00;;;;4991501;28;20194;-79
2023/10/31 07:02:35;;;;;;;1.48;0.32;;;14.40;70.20;16.10;99794.00;;;;4991024;28;20614;-78
2023/10/31 07:05:04;;;;;;;1.85;0.40;;;14.50;70.20;16.10;99796.00;;;;5004145;28;20240;-78
2023/10/31 07:07:31;;;;;;;0.47;0.20;;;14.40;70.20;16.10;99796.00;;;;5000821;28;20202;-77
2023/10/31 07:09:58;;;;;;;1.38;0.50;;;14.40;70.20;16.10;99808.00;;;;5000176;28;20201;-77
2023/10/31 07:12:25;;;;;;;2.13;0.68;;;14.40;70.20;16.10;99813.00;;;;4991650;28;20201;-77
2023/10/31 07:14:53;;;;;;;1.02;0.40;;;14.40;70.30;16.00;99807.00;;;;4995219;28;20197;-77
2023/10/31 07:17:20;;;;;;;0.75;0.40;;;14.40;70.40;16.10;99812.00;;;;4993622;28;20198;-77
2023/10/31 07:19:47;;;;;;;1.30;0.80;;;14.40;70.40;16.10;99811.00;;;;4989636;28;20217;-77
2023/10/31 07:22:15;;;;;;;1.13;0.95;;;14.40;70.50;16.10;99819.00;;;;4989860;28;20193;-78
2023/10/31 07:24:43;;;;;;;1.55;0.80;;;14.40;70.60;16.10;99820.00;;;;4997982;28;20196;-78
2023/10/31 07:27:11;;;;;;;1.33;0.82;;;14.40;70.70;16.20;99826.00;;;;4996831;28;20294;-77
2023/10/31 07:29:41;;;;;;;1.38;1.17;;;14.40;70.80;16.20;99835.00;;;;4994470;28;20209;-77
2023/10/31 07:32:10;;;;;;;1.90;1.00;;;14.50;70.90;16.20;99826.00;;;;4990946;28;20198;-77
2023/10/31 07:34:37;;;;;;;1.52;1.15;;;14.50;70.90;16.20;99835.00;;;;4996486;28;20268;-77
2023/10/31 07:37:04;;;;;;;2.70;1.38;;;14.50;70.90;16.30;99831.00;;;;4992269;28;20882;-77
2023/10/31 07:39:31;;;;;;;2.60;1.60;;;14.50;70.90;16.30;99842.00;;;;4994976;28;20578;-77
2023/10/31 07:41:58;;;;;;;1.88;1.60;;;14.50;71.00;16.30;99845.00;;;;5000434;28;20316;-78
2023/10/31 07:44:25;;;;;;;2.92;1.85;;;14.60;71.10;16.40;99852.00;;;;4994309;28;20241;-77
2023/10/31 07:46:52;;;;;;;2.45;1.88;;;14.60;71.20;16.40;99850.00;;;;5005265;28;20204;-78
2023/10/31 07:49:21;;;;;;;4.53;2.13;;;14.60;71.30;16.50;99854.00;;;;4991691;28;20216;-78
2023/10/31 07:51:49;;;;;;;3.45;2.00;;;14.70;71.40;16.50;99854.00;;;;4988307;28;20200;-79
2023/10/31 07:54:16;;;;;;;2.42;2.03;;;14.70;71.50;16.60;99863.00;;;;4995981;28;20193;-78
2023/10/31 07:56:44;;;;;;;2.85;1.95;;;14.80;71.60;16.60;99842.00;;;;4999066;28;20598;-78
2023/10/31 07:59:11;;;;;;;4.00;2.55;;;14.90;71.70;16.70;99849.00;;;;5004424;28;20200;-78
2023/10/31 08:01:38;;;;;;;2.47;2.03;;;14.90;71.90;16.70;99846.00;;;;4990241;28;20217;-78
2023/10/31 08:04:05;;;;;;;2.60;2.30;;;14.90;71.70;16.80;99856.00;;;;4991520;28;20228;-78
2023/10/31 08:06:33;;;;;;;4.18;1.88;;;15.00;71.70;16.80;99864.00;;;;4991650;28;20193;-78
2023/10/31 08:09:01;;;;;;;4.40;2.13;;;15.10;71.70;16.90;99856.00;;;;4999531;28;20201;-79
2023/10/31 08:11:27;;;;;;;2.85;2.10;;;15.10;71.60;16.90;99855.00;;;;4987800;28;20204;-78
2023/10/31 08:13:55;;;;;;;3.55;1.98;;;15.20;71.50;16.90;99846.00;;;;4990827;28;20208;-78
2023/10/31 08:16:22;;;;;;;2.63;1.63;;;15.20;71.70;17.00;99849.00;;;;4991894;28;20217;-77
2023/10/31 08:18:50;;;;;;;2.50;1.70;;;15.20;71.20;17.00;99855.00;;;;4989941;28;20205;-78
2023/10/31 08:21:17;;;;;;;3.22;1.90;;;15.30;71.30;17.00;99858.00;;;;4992298;28;20202;-78
2023/10/31 08:23:46;;;;;;;3.03;2.08;;;15.30;71.20;17.10;99855.00;;;;4991361;28;20224;-78
2023/10/31 08:26:13;;;;;;;6.70;2.25;;;15.30;71.20;17.10;99861.00;;;;4989092;28;20344;-77
2023/10/31 08:28:40;;;;;;;2.78;2.08;;;15.40;71.20;17.20;99868.00;;;;4992001;28;20651;-77
2023/10/31 08:31:07;;;;;;;3.22;1.75;;;15.40;71.30;17.20;99866.00;;;;5004710;28;20200;-78
2023/10/31 08:33:34;;;;;;;3.53;1.85;;;15.50;71.60;17.30;99868.00;;;;5005559;28;20267;-77
2023/10/31 08:36:01;;;;;;;2.22;1.42;;;15.50;71.60;17.40;99875.00;;;;4995731;28;20571;-78
2023/10/31 08:38:29;;;;;;;1.92;1.70;;;15.60;71.70;17.40;99866.00;;;;5002225;28;20727;-78
2023/10/31 08:40:59;;;;;;;3.50;1.67;;;15.60;71.60;17.40;99863.00;;;;4992614;28;20667;-78
2023/10/31 08:43:26;;;;;;;5.57;1.98;;;15.70;71.50;17.40;99876.00;;;;5002029;28;20232;-77
2023/10/31 08:45:53;;;;;;;2.65;1.70;;;15.70;71.30;17.50;99874.00;;;;4997455;28;20209;-77
2023/10/31 08:48:21;;;;;;;2.10;1.52;;;15.80;71.10;17.50;99875.00;;;;4992866;28;20205;-77
2023/10/31 08:50:49;;;;;;;3.00;1.77;;;15.80;71.00;17.50;99877.00;;;;4999681;28;20201;-77
2023/10/31 08:53:16;;;;;;;4.22;2.00;;;15.80;70.90;17.50;99885.00;;;;4995939;28;20192;-77
2023/10/31 08:55:44;;;;;;;4.03;1.65;;;15.80;70.90;17.50;99893.00;;;;5003006;28;20211;-78
2023/10/31 08:58:13;;;;;;;3.25;2.08;;;15.80;70.90;17.50;99892.00;;;;5004286;28;20247;-78
2023/10/31 09:00:40;;;;;;;4.15;1.83;;;15.80;70.90;17.50;99903.00;;;;4993552;28;20217;-78
2023/10/31 09:03:07;;;;;;;5.57;1.63;;;15.90;70.90;17.60;99909.00;;;;5003786;28;20311;-78
2023/10/31 09:05:34;;;;;;;3.05;2.15;;;15.90;71.00;17.60;99912.00;;;;4994946;28;20726;-78
2023/10/31 09:08:01;;;;;;;2.55;2.10;;;15.90;71.00;17.60;99909.00;;;;5001748;28;20201;-78
2023/10/31 09:10:29;;;;;;;3.92;2.08;;;15.90;71.00;17.60;99925.00;;;;4994804;28;20291;-78
2023/10/31 09:12:56;;;;;;;3.67;2.22;;;15.90;71.00;17.70;99914.00;;;;4995501;28;20208;-78
2023/10/31 09:15:24;;;;;;;3.13;2.15;;;15.90;71.10;17.70;99917.00;;;;5002569;28;20283;-78
2023/10/31 09:17:51;;;;;;;3.95;2.72;;;16.00;71.20;17.70;99925.00;;;;5003463;28;20230;-79
2023/10/31 09:20:18;;;;;;;4.05;2.28;;;16.00;71.30;17.80;99927.00;;;;4994123;28;20202;-78
2023/10/31 09:22:45;;;;;;;6.93;2.75;;;16.10;71.40;17.80;99933.00;;;;4992900;28;20198;-78
2023/10/31 09:25:12;;;;;;;5.57;2.78;;;16.10;71.40;17.90;99929.00;;;;4990187;28;20572;-78
2023/10/31 09:27:41;;;;;;;3.13;2.75;;;16.20;71.40;17.90;99935.00;;;;4990092;28;20217;-78
2023/10/31 09:30:09;;;;;;;3.85;2.40;;;16.20;71.30;17.90;99937.00;;;;4995510;28;21320;-78
2023/10/31 09:32:37;;;;;;;3.03;2.50;;;16.20;71.30;18.00;99936.00;;;;5002850;28;20205;-78
2023/10/31 09:35:05;;;;;;;4.22;2.65;;;16.30;71.30;18.00;99945.00;;;;5006131;28;20204;-78
2023/10/31 09:37:32;;;;;;;3.72;2.72;;;16.30;71.30;18.10;99943.00;;;;5015888;28;20188;-78
2023/10/31 09:39:59;;;;;;;2.92;2.42;;;16.40;71.30;18.10;99943.00;;;;5026137;28;20200;-79
2023/10/31 09:42:26;;;;;;;4.07;2.95;;;16.40;71.30;18.20;99952.00;;;;4999848;28;20193;-79
2023/10/31 09:44:55;;;;;;;4.47;2.80;;;16.50;71.30;18.20;99951.00;;;;4994510;28;20203;-79
2023/10/31 09:47:23;;;;;;;5.28;2.47;;;16.50;71.30;18.30;99952.00;;;;5000531;28;20197;-78
2023/10/31 09:49:51;;;;;;;3.55;2.97;;;16.60;71.50;18.40;99960.00;;;;5010408;28;20197;-79
2023/10/31 09:52:20;;;;;;;5.72;2.83;;;16.60;71.40;18.40;99966.00;;;;5006070;28;20210;-79
2023/10/31 09:54:49;;;;;;;5.78;2.55;;;16.70;71.30;18.40;99957.00;;;;4989476;28;20228;-78
2023/10/31 09:57:18;;;;;;;3.97;2.20;;;16.70;71.00;18.40;99967.00;;;;5002515;28;20192;-79
2023/10/31 09:59:45;;;;;;;4.53;2.22;;;16.80;71.00;18.50;99962.00;;;;4996677;28;20208;-78
2023/10/31 10:02:12;;;;;;;5.63;2.35;;;16.80;71.00;18.60;99969.00;;;;4994148;28;20216;-79
2023/10/31 10:04:39;;;;;;;6.85;2.80;;;16.90;71.20;18.70;99976.00;;;;5005466;28;20225;-78
2023/10/31 10:07:07;;;;;;;3.78;2.22;;;17.00;71.30;18.80;99980.00;;;;4993457;28;20244;-78
2023/10/31 10:09:34;;;;;;;5.53;3.22;;;17.00;71.40;18.80;99986.00;;;;5006737;28;20851;-79
2023/10/31 10:12:03;;;;;;;5.30;2.92;;;17.10;71.30;18.80;99983.00;;;;5008351;28;20204;-78
2023/10/31 10:14:31;;;;;;;4.80;2.67;;;17.20;71.00;18.90;99990.00;;;;5004590;28;20204;-79
2023/10/31 10:16:58;;;;;;;6.80;2.63;;;17.20;70.60;18.90;99988.00;;;;5009528;28;20201;-79
2023/10/31 10:19:26;;;;;;;4.03;2.65;;;17.30;70.40;18.90;99996.00;;;;4998661;28;20202;-79
2023/10/31 10:21:55;;;;;;;4.68;2.80;;;17.20;70.10;18.90;100001.00;;;;4996914;28;20583;-78
2023/10/31 10:24:25;;;;;;;4.80;2.30;;;17.30;70.10;18.90;99999.00;;;;5001949;28;20233;-79
2023/10/31 10:26:53;;;;;;;5.82;2.60;;;17.30;70.20;19.00;99999.00;;;;5008801;28;20228;-79
2023/10/31 10:29:20;;;;;;;5.75;3.10;;;17.30;70.30;19.00;100006.00;;;;5027087;28;20211;-78
2023/10/31 10:31:47;;;;;;;4.13;2.42;;;17.30;70.50;19.10;100007.00;;;;5007124;28;20197;-79
2023/10/31 10:34:16;;;;;;;3.63;2.15;;;17.40;70.50;19.20;100010.00;;;;4995379;28;20308;-79
2023/10/31 10:36:49;;;;;;;3.63;2.65;;;17.50;70.70;19.20;100011.00;;;;5007128;28;20197;-79
2023/10/31 10:39:21;;;;;;;4.15;1.90;;;17.50;70.80;19.30;100004.00;;;;4993860;28;20264;-79
2023/10/31 10:41:55;;;;;;;4.35;2.00;;;17.60;70.60;19.40;100003.00;;;;4989388;28;20206;-79
2023/10/31 10:44:34;;;;;;;2.03;1.75;;;17.70;70.50;19.40;100010.00;;;;4995025;28;20233;-79
2023/10/31 10:47:05;;;;;;;2.67;2.25;;;17.80;70.60;19.50;100016.00;;;;4997820;28;20204;-79
2023/10/31 10:49:36;;;;;;;3.83;2.00;;;17.90;70.50;19.60;100016.00;;;;5001180;28;20549;-79
2023/10/31 10:52:22;;;;;;;4.97;2.22;;;18.00;70.30;19.60;100021.00;;;;5010430;28;20247;-79
2023/10/31 10:54:58;;;;;;;4.30;1.80;;;18.00;70.00;19.70;100016.00;;;;4994865;28;20208;-78
2023/10/31 10:57:39;;;;;;;2.78;1.70;;;18.10;70.00;19.80;100025.00;;;;5007210;28;20192;-79